Malaga Aeropuerto en Andalucia

latitud = 36° 39' 58''N | longitud = 004° 28' 56''W
5 metros sobre el nivel del mar |

Fecha, hora, temperatura, viento dirección y velocidad, humedad y presión.

  • 25-09-2017 00:00:00 | 21.10°C | Calma |0.00 km/h | 84.00% | 1020.20 hPa
  • 24-09-2017 23:00:00 | 21.10°C | Calma |0.00 km/h | 87.00% | 1020.40 hPa
  • 24-09-2017 22:00:00 | 21.60°C | Sudeste |6.00 km/h | 86.00% | 1020.20 hPa
  • 24-09-2017 21:00:00 | 22.10°C | Este |8.00 km/h | 83.00% | 1019.80 hPa
  • 24-09-2017 20:00:00 | 23.90°C | Sudeste |7.00 km/h | 74.00% | 1019.50 hPa
  • 24-09-2017 19:00:00 | 25.30°C | Sudeste |12.00 km/h | 69.00% | 1019.30 hPa
  • 24-09-2017 18:00:00 | 26.10°C | Sudeste |13.00 km/h | 66.00% | 1019.50 hPa
  • 24-09-2017 17:00:00 | 26.70°C | Sudeste |15.00 km/h | 64.00% | 1019.80 hPa
  • 24-09-2017 16:00:00 | 26.40°C | Sudeste |17.00 km/h | 63.00% | 1020.00 hPa
  • 24-09-2017 15:00:00 | 26.60°C | Sudeste |17.00 km/h | 61.00% | 1020.20 hPa
  • 24-09-2017 14:00:00 | 26.50°C | Sudeste |17.00 km/h | 61.00% | 1020.50 hPa
  • 24-09-2017 13:00:00 | 26.30°C | Sudeste |15.00 km/h | 61.00% | 1020.80 hPa
  • 24-09-2017 12:00:00 | 25.60°C | Este |13.00 km/h | 62.00% | 1021.00 hPa
  • 24-09-2017 11:00:00 | 23.40°C | Noroeste |5.00 km/h | 69.00% | 1021.00 hPa
  • 24-09-2017 10:00:00 | 21.00°C | Oeste |11.00 km/h | 76.00% | 1020.80 hPa
  • 24-09-2017 09:00:00 | 18.80°C | Oeste |13.00 km/h | 84.00% | 1020.30 hPa
  • 24-09-2017 08:00:00 | 18.20°C | Oeste |14.00 km/h | 85.00% | 1020.20 hPa
  • 24-09-2017 07:00:00 | 18.30°C | Oeste |11.00 km/h | 85.00% | 1019.70 hPa
  • 24-09-2017 06:00:00 | 19.20°C | Oeste |14.00 km/h | 83.00% | 1019.40 hPa
  • 24-09-2017 05:00:00 | 19.40°C | Noroeste |13.00 km/h | 83.00% | 1019.70 hPa
  • 24-09-2017 04:00:00 | 19.80°C | Noroeste |12.00 km/h | 83.00% | 1020.10 hPa
  • 24-09-2017 03:00:00 | 20.20°C | Oeste |10.00 km/h | 81.00% | 1020.60 hPa
  • 24-09-2017 02:00:00 | 20.50°C | Oeste |12.00 km/h | 81.00% | 1020.80 hPa
  • 24-09-2017 01:00:00 | 20.70°C | Sudoeste |2.00 km/h | 85.00% | 1020.70 hPa
    • Datos gráficos mensuales de Malaga Aeropuerto: